createdAt,value
2022-08-03T04:20:00.365Z,95.50
2022-08-03T04:22:29.818Z,90.40
2022-08-03T04:25:01.689Z,81.33
2022-08-03T04:27:32.535Z,94.00
2022-08-03T04:30:02.493Z,90.00
2022-08-03T04:32:31.643Z,88.80
2022-08-03T04:35:01.295Z,80.77
2022-08-03T04:37:34.847Z,87.53
2022-08-03T04:40:04.040Z,90.27
2022-08-03T04:42:33.871Z,82.67
2022-08-03T04:45:04.159Z,85.67
2022-08-03T04:47:34.279Z,85.63
2022-08-03T04:50:09.137Z,88.90
2022-08-03T04:52:40.826Z,94.83
2022-08-03T04:55:26.740Z,84.97
2022-08-03T04:57:54.988Z,87.33
2022-08-03T05:00:23.582Z,86.70
2022-08-03T05:02:51.947Z,86.17
2022-08-03T05:05:21.645Z,94.67
2022-08-03T05:07:51.367Z,83.27
2022-08-03T05:10:19.572Z,86.80
2022-08-03T05:12:48.055Z,85.47
2022-08-03T05:15:16.433Z,93.67
2022-08-03T05:17:44.702Z,89.00
2022-08-03T05:20:13.348Z,87.87
2022-08-03T05:22:46.136Z,86.73
2022-08-03T05:25:19.104Z,88.37
2022-08-03T05:27:48.182Z,83.40
2022-08-03T05:30:30.451Z,86.07
2022-08-03T05:33:02.727Z,88.20
2022-08-03T05:36:02.769Z,90.23
2022-08-03T05:38:28.941Z,85.17
2022-08-03T05:41:21.289Z,87.73
2022-08-03T05:43:50.971Z,86.07
2022-08-03T05:46:20.449Z,90.60
2022-08-03T05:48:48.933Z,86.90
2022-08-03T05:51:17.201Z,91.77
2022-08-03T05:53:46.804Z,89.27
2022-08-03T05:56:16.654Z,92.13
2022-08-03T05:58:46.026Z,86.10
2022-08-03T06:01:14.455Z,88.40
2022-08-03T06:03:42.775Z,91.17
2022-08-03T06:06:11.622Z,94.07
2022-08-03T06:08:40.146Z,87.43
2022-08-03T06:11:10.022Z,89.57
2022-08-03T06:13:38.511Z,90.87
2022-08-03T06:16:07.208Z,90.37
2022-08-03T06:18:35.531Z,82.10
2022-08-03T06:21:14.906Z,90.90
2022-08-03T06:23:54.875Z,86.40
2022-08-03T06:26:25.351Z,84.07
2022-08-03T06:28:54.933Z,90.03
2022-08-03T06:31:25.857Z,90.27
2022-08-03T06:34:32.440Z,91.10
2022-08-03T06:36:42.325Z,92.67
2022-08-03T06:39:10.536Z,96.10
2022-08-03T06:41:44.749Z,85.70
2022-08-03T06:44:13.395Z,92.07
2022-08-03T06:46:42.252Z,98.90
2022-08-03T06:49:10.558Z,99.27
2022-08-03T06:52:03.303Z,96.00
2022-08-03T06:54:27.139Z,97.93
2022-08-03T06:56:57.008Z,92.33
2022-08-03T07:00:10.995Z,91.57
2022-08-03T07:02:16.154Z,90.50
2022-08-03T07:04:47.735Z,84.50
2022-08-03T07:07:15.988Z,90.00
2022-08-03T07:09:56.598Z,106.83
2022-08-03T07:12:28.684Z,99.40
2022-08-03T07:15:00.724Z,95.90
2022-08-03T07:17:29.655Z,91.50
2022-08-03T07:19:57.903Z,103.80
2022-08-03T07:22:26.129Z,96.43
2022-08-03T07:24:54.373Z,94.33
2022-08-03T07:27:22.592Z,93.20
2022-08-03T07:29:52.158Z,91.77
2022-08-03T07:32:20.388Z,99.27
2022-08-03T07:34:48.636Z,102.23
2022-08-03T07:37:16.845Z,89.13
2022-08-03T07:39:45.335Z,94.07
2022-08-03T07:42:13.631Z,90.50
2022-08-03T07:44:42.323Z,89.07
2022-08-03T07:47:22.442Z,88.93
2022-08-03T07:49:51.135Z,86.83
2022-08-03T07:52:37.190Z,93.23
2022-08-03T07:55:06.335Z,87.43
2022-08-03T07:57:34.559Z,91.03
2022-08-03T08:00:03.167Z,97.10
2022-08-03T08:02:32.811Z,88.90
2022-08-03T08:05:05.284Z,88.83
2022-08-03T08:07:34.028Z,96.73
2022-08-03T08:10:02.260Z,88.53
2022-08-03T08:12:30.470Z,88.60
2022-08-03T08:14:58.665Z,88.90
2022-08-03T08:17:26.838Z,89.17
2022-08-03T08:19:56.519Z,88.50
2022-08-03T08:22:29.858Z,87.77
2022-08-03T08:24:59.011Z,88.70
2022-08-03T08:27:27.492Z,89.77
2022-08-03T08:29:59.604Z,88.17
2022-08-03T08:32:33.099Z,88.90
2022-08-03T08:35:02.702Z,90.47
2022-08-03T08:37:30.870Z,88.90
2022-08-03T08:39:59.189Z,87.47
2022-08-03T08:42:27.410Z,90.00
2022-08-03T08:44:56.647Z,88.83
2022-08-03T08:47:26.178Z,93.13
2022-08-03T08:50:09.276Z,92.17
2022-08-03T08:52:42.034Z,90.10
2022-08-03T08:55:12.100Z,91.97
2022-08-03T08:57:43.301Z,92.83
2022-08-03T09:00:14.054Z,92.07
2022-08-03T09:02:43.407Z,91.03
2022-08-03T09:05:12.881Z,93.50
2022-08-03T09:07:42.680Z,90.63
2022-08-03T09:10:13.728Z,91.43
2022-08-03T09:12:44.157Z,90.87
2022-08-03T09:15:19.624Z,91.37
2022-08-03T09:17:51.141Z,90.97
2022-08-03T09:20:19.668Z,92.73
2022-08-03T09:22:56.287Z,90.70
2022-08-03T09:25:31.531Z,93.07
2022-08-03T09:28:06.630Z,91.23
2022-08-03T09:30:35.314Z,92.83
2022-08-03T09:33:04.400Z,93.67
2022-08-03T09:35:53.253Z,94.33
2022-08-03T09:38:24.090Z,93.43
2022-08-03T09:40:57.341Z,98.17
2022-08-03T09:43:27.860Z,90.37
2022-08-03T09:46:04.051Z,96.57
2022-08-03T09:48:34.721Z,91.50
2022-08-03T09:51:12.991Z,94.93
2022-08-03T09:53:58.915Z,98.33
2022-08-03T09:56:39.312Z,94.47
2022-08-03T09:59:07.547Z,96.03
2022-08-03T10:01:36.228Z,93.90
2022-08-03T10:04:05.415Z,100.40
2022-08-03T10:06:33.886Z,93.43
2022-08-03T10:09:11.056Z,93.23
2022-08-03T10:11:41.974Z,96.03
2022-08-03T10:14:18.601Z,95.73
2022-08-03T10:16:47.535Z,96.17
2022-08-03T10:19:16.194Z,96.10
2022-08-03T10:21:48.308Z,92.97
2022-08-03T10:24:18.882Z,95.37
2022-08-03T10:26:49.688Z,103.37
2022-08-03T10:29:20.652Z,93.13
2022-08-03T10:31:55.904Z,94.23
2022-08-03T10:34:28.177Z,94.70
2022-08-03T10:36:58.801Z,90.83
2022-08-03T10:39:30.309Z,94.17
2022-08-03T10:42:03.033Z,100.23
2022-08-03T10:44:34.398Z,95.63
2022-08-03T10:47:02.869Z,94.37
2022-08-03T10:49:35.272Z,95.53
2022-08-03T10:52:13.895Z,93.43
2022-08-03T10:55:11.333Z,101.40
2022-08-03T10:57:48.777Z,98.40
2022-08-03T11:00:19.056Z,102.80
2022-08-03T11:03:18.473Z,95.23
2022-08-03T11:05:48.167Z,101.23
2022-08-03T11:08:19.931Z,95.80
2022-08-03T11:10:49.878Z,100.90
2022-08-03T11:13:18.860Z,95.83
2022-08-03T11:15:48.062Z,101.10
2022-08-03T11:18:17.227Z,93.73
2022-08-03T11:20:46.238Z,98.87
2022-08-03T11:23:14.939Z,99.63
2022-08-03T11:26:02.031Z,100.03
2022-08-03T11:28:33.619Z,98.60
2022-08-03T11:31:32.952Z,99.83
2022-08-03T11:34:05.818Z,97.33
2022-08-03T11:36:55.288Z,96.73
2022-08-03T11:39:23.556Z,100.83
2022-08-03T11:41:51.796Z,101.37
2022-08-03T11:44:34.922Z,102.60
2022-08-03T11:47:04.595Z,96.77
2022-08-03T11:49:33.497Z,100.63
2022-08-03T11:52:01.758Z,96.67
2022-08-03T11:54:31.519Z,101.17
2022-08-03T11:57:00.091Z,103.37
2022-08-03T11:59:33.816Z,100.50
2022-08-03T12:02:09.253Z,95.33
2022-08-03T12:05:24.882Z,100.20
2022-08-03T12:08:03.809Z,100.77
2022-08-03T12:10:34.657Z,102.30
2022-08-03T12:13:05.798Z,108.30
2022-08-03T12:15:54.669Z,101.67
2022-08-03T12:18:24.549Z,101.10
2022-08-03T12:20:53.347Z,97.17
2022-08-03T12:23:22.099Z,105.77
2022-08-03T12:25:50.463Z,121.10
2022-08-03T12:28:37.434Z,101.57
2022-08-03T12:31:07.686Z,102.63
2022-08-03T12:33:50.860Z,98.80
2022-08-03T12:36:21.081Z,100.47
2022-08-03T12:38:56.394Z,101.87
2022-08-03T12:41:29.713Z,104.07
2022-08-03T12:43:58.155Z,103.53
2022-08-03T12:46:31.753Z,111.23
2022-08-03T12:49:19.110Z,107.97
2022-08-03T12:52:03.861Z,102.50
2022-08-03T12:54:36.051Z,101.07
2022-08-03T12:57:05.624Z,95.20
2022-08-03T12:59:40.537Z,95.73
2022-08-03T13:02:16.250Z,97.47
2022-08-03T13:04:46.629Z,102.57
2022-08-03T13:07:18.119Z,95.97
2022-08-03T13:09:49.215Z,94.83
2022-08-03T13:12:18.182Z,96.30
2022-08-03T13:14:47.720Z,98.23
2022-08-03T13:17:17.686Z,96.43
2022-08-03T13:19:46.991Z,94.23
2022-08-03T13:22:17.541Z,93.03
2022-08-03T13:24:46.409Z,97.03
2022-08-03T13:28:04.148Z,101.67
2022-08-03T13:30:04.020Z,94.40
2022-08-03T13:32:32.320Z,93.07
2022-08-03T13:35:00.704Z,100.40
2022-08-03T13:37:32.085Z,100.00
2022-08-03T13:40:02.754Z,101.63
2022-08-03T13:42:31.929Z,100.60
2022-08-03T13:45:00.545Z,95.73
2022-08-03T13:47:28.899Z,96.40
2022-08-03T13:50:01.451Z,100.03
2022-08-03T13:52:32.587Z,101.03
2022-08-03T13:55:00.940Z,96.87
2022-08-03T13:58:02.872Z,94.23
2022-08-03T14:00:26.238Z,100.80
2022-08-03T14:03:02.881Z,100.67
2022-08-03T14:05:34.220Z,95.97
2022-08-03T14:08:05.628Z,94.90
2022-08-03T14:10:34.800Z,95.27
2022-08-03T14:13:03.002Z,93.80
2022-08-03T14:15:31.306Z,101.50
2022-08-03T14:17:59.639Z,97.20
2022-08-03T14:20:38.701Z,97.23
2022-08-03T14:23:16.707Z,103.10
2022-08-03T14:25:52.411Z,100.77
2022-08-03T14:28:22.438Z,96.33
2022-08-03T14:30:51.359Z,106.00
2022-08-03T14:33:19.622Z,102.30
2022-08-03T14:35:51.256Z,99.90
2022-08-03T14:38:21.000Z,99.87
2022-08-03T14:40:49.754Z,104.20
2022-08-03T14:43:20.235Z,94.50
2022-08-03T14:45:48.613Z,93.13
2022-08-03T14:50:34.123Z,99.23
2022-08-03T14:51:06.075Z,95.87
2022-08-03T14:53:35.726Z,96.67
2022-08-03T14:56:09.420Z,98.00
2022-08-03T14:58:38.669Z,96.70
2022-08-03T15:02:02.154Z,95.33
2022-08-03T15:03:55.989Z,94.50
2022-08-03T15:06:24.248Z,103.80
2022-08-03T15:09:22.719Z,97.93
2022-08-03T15:11:42.464Z,96.17
2022-08-03T15:14:10.718Z,93.73
2022-08-03T15:16:41.898Z,91.00
2022-08-03T15:20:03.241Z,91.20
2022-08-03T15:21:58.397Z,87.90
2022-08-03T15:24:30.857Z,91.97
2022-08-03T15:26:59.201Z,91.77
2022-08-03T15:30:08.876Z,91.60
2022-08-03T15:32:15.849Z,94.50
2022-08-03T15:34:50.647Z,90.63
2022-08-03T15:37:19.328Z,95.00
2022-08-03T15:40:00.016Z,98.13
2022-08-03T15:42:28.811Z,97.37
2022-08-03T15:44:57.086Z,98.40
2022-08-03T15:47:25.635Z,100.67
2022-08-03T15:49:53.901Z,97.63
2022-08-03T15:52:22.246Z,93.63
2022-08-03T15:54:51.811Z,97.23
2022-08-03T15:57:20.350Z,92.20
2022-08-03T15:59:48.860Z,90.50
2022-08-03T16:02:17.448Z,90.30
2022-08-03T16:04:45.719Z,94.47
2022-08-03T16:07:15.728Z,87.93
2022-08-03T16:09:44.398Z,88.80
2022-08-03T16:12:16.310Z,88.17
2022-08-03T16:14:52.529Z,88.37
2022-08-03T16:17:22.231Z,87.27
2022-08-03T16:19:50.963Z,87.77
2022-08-03T16:22:23.150Z,88.70
2022-08-03T16:24:52.252Z,84.60
2022-08-03T16:27:58.423Z,89.73
2022-08-03T16:30:10.942Z,79.57
2022-08-03T16:32:40.675Z,96.80
2022-08-03T16:35:19.165Z,82.80
2022-08-03T16:37:55.999Z,83.93
2022-08-03T16:40:25.890Z,84.13
2022-08-03T16:42:55.630Z,86.83
2022-08-03T16:45:23.953Z,87.37
2022-08-03T16:48:01.544Z,96.43
2022-08-03T16:50:34.336Z,89.27
2022-08-03T16:53:06.268Z,87.13
2022-08-03T16:55:51.623Z,90.20
2022-08-03T16:58:34.724Z,93.67
2022-08-03T17:01:22.230Z,87.60
2022-08-03T17:04:02.069Z,88.77
2022-08-03T17:06:34.355Z,94.13
2022-08-03T17:09:03.343Z,90.73
2022-08-03T17:11:32.164Z,93.63
2022-08-03T17:14:09.182Z,94.20
2022-08-03T17:16:38.599Z,94.80
2022-08-03T17:19:07.886Z,93.97
2022-08-03T17:21:39.306Z,90.80
2022-08-03T17:24:12.526Z,90.40
2022-08-03T17:26:43.431Z,98.77
2022-08-03T17:29:15.234Z,89.50
2022-08-03T17:31:48.813Z,87.47
2022-08-03T17:34:18.767Z,87.63
2022-08-03T17:37:03.746Z,89.87
2022-08-03T17:39:57.171Z,86.60
2022-08-03T17:42:30.405Z,86.60
2022-08-03T17:45:03.996Z,83.63
2022-08-03T17:47:41.864Z,81.83
2022-08-03T17:50:25.202Z,80.13
2022-08-03T17:52:58.128Z,49.03
2022-08-03T17:55:57.326Z,56.37
2022-08-03T17:58:18.891Z,46.17
2022-08-03T18:01:57.387Z,55.07
2022-08-03T18:03:59.500Z,51.30
2022-08-03T18:06:30.630Z,48.80
2022-08-03T18:09:05.074Z,47.90
2022-08-03T18:11:53.596Z,51.33
2022-08-03T18:14:25.159Z,49.60
2022-08-03T18:16:58.703Z,48.73
2022-08-03T18:20:03.285Z,46.80
2022-08-03T18:22:17.887Z,49.97
2022-08-03T18:24:47.574Z,48.43
2022-08-03T18:27:16.999Z,49.23
2022-08-03T18:29:48.485Z,53.93
2022-08-03T18:32:18.479Z,53.73
2022-08-03T18:34:53.099Z,52.73
2022-08-03T18:37:25.349Z,47.20
2022-08-03T18:39:58.050Z,53.67
2022-08-03T18:42:27.038Z,50.00
2022-08-03T18:44:56.339Z,55.10
2022-08-03T18:47:50.824Z,47.40
2022-08-03T18:50:22.195Z,47.23
2022-08-03T18:52:53.569Z,55.57
2022-08-03T18:55:33.791Z,49.57
2022-08-03T18:58:07.406Z,48.33
2022-08-03T19:00:54.354Z,47.77
2022-08-03T19:03:41.430Z,47.93
2022-08-03T19:06:19.384Z,48.50
2022-08-03T19:08:50.194Z,46.07
2022-08-03T19:11:22.616Z,47.30
2022-08-03T19:13:57.821Z,52.20
2022-08-03T19:16:32.201Z,50.50
2022-08-03T19:19:04.489Z,45.27
2022-08-03T19:21:35.722Z,49.23
2022-08-03T19:24:09.766Z,49.27
2022-08-03T19:26:39.651Z,48.47
2022-08-03T19:29:14.785Z,46.40
2022-08-03T19:31:59.004Z,49.67
2022-08-03T19:34:30.448Z,48.20
2022-08-03T19:36:59.191Z,48.50
2022-08-03T19:39:28.649Z,47.53
2022-08-03T19:42:10.101Z,46.43
2022-08-03T19:44:52.011Z,50.47
2022-08-03T19:47:35.591Z,45.70
2022-08-03T19:50:13.834Z,49.47
2022-08-03T19:53:05.755Z,44.87
2022-08-03T19:55:35.954Z,48.63
2022-08-03T19:58:07.520Z,50.67
2022-08-03T20:00:48.772Z,47.87
2022-08-03T20:03:21.677Z,47.30
2022-08-03T20:05:55.026Z,73.50
2022-08-03T20:08:23.675Z,49.77
2022-08-03T20:10:52.183Z,47.77
2022-08-03T20:13:20.871Z,48.40
2022-08-03T20:15:49.214Z,49.63
2022-08-03T20:18:21.747Z,50.40
2022-08-03T20:20:53.583Z,54.33
2022-08-03T20:23:22.708Z,48.03
2022-08-03T20:25:58.263Z,54.10
2022-08-03T20:28:28.015Z,53.53
2022-08-03T20:30:58.033Z,49.30
2022-08-03T20:36:18.687Z,47.13
2022-08-03T20:38:48.193Z,79.57
2022-08-03T20:41:16.651Z,50.37
2022-08-03T20:43:45.036Z,48.80
2022-08-03T20:46:35.324Z,53.97
2022-08-03T20:49:04.334Z,49.73
2022-08-03T20:51:50.051Z,51.50
2022-08-03T20:54:28.680Z,48.47
2022-08-03T20:56:58.630Z,48.87
2022-08-03T20:59:34.805Z,47.43
2022-08-03T21:02:19.256Z,56.23
2022-08-03T21:04:48.465Z,48.10
2022-08-03T21:07:22.852Z,49.77
2022-08-03T21:09:52.768Z,50.80
2022-08-03T21:12:29.224Z,51.97
2022-08-03T21:13:07.168Z,48.47
2022-08-03T21:15:00.843Z,56.33
2022-08-03T21:17:40.464Z,47.03
2022-08-03T21:20:10.320Z,54.97
2022-08-03T21:22:40.899Z,59.10
2022-08-03T21:25:10.172Z,52.83
2022-08-03T21:27:38.661Z,48.10
2022-08-03T21:30:08.434Z,48.53
2022-08-03T21:32:40.013Z,47.27
2022-08-03T21:35:10.170Z,48.73
2022-08-03T21:37:40.804Z,49.63
2022-08-03T21:40:10.662Z,53.93
2022-08-03T21:42:39.421Z,51.97
2022-08-03T21:45:08.767Z,49.10
2022-08-03T21:47:38.432Z,50.23
2022-08-03T21:50:09.809Z,48.73
2022-08-03T21:52:43.038Z,48.20
2022-08-03T21:55:18.370Z,47.27
2022-08-03T21:57:53.765Z,48.70
2022-08-03T22:00:23.366Z,50.23
2022-08-03T22:02:55.235Z,51.30
2022-08-03T22:05:42.599Z,47.33
2022-08-03T22:08:14.316Z,49.47
2022-08-03T22:10:44.896Z,49.17
2022-08-03T22:13:13.254Z,47.87
2022-08-03T22:15:41.651Z,48.87
2022-08-03T22:18:10.304Z,53.97
2022-08-03T22:20:38.544Z,54.97
2022-08-03T22:23:08.347Z,46.40
2022-08-03T22:25:40.939Z,50.13
2022-08-03T22:28:10.590Z,47.37
2022-08-03T22:30:38.928Z,49.30
2022-08-03T22:33:10.961Z,50.97
2022-08-03T22:35:44.398Z,47.07
2022-08-03T22:38:16.348Z,46.97
2022-08-03T22:40:46.730Z,51.30
2022-08-03T22:43:15.192Z,50.00
2022-08-03T22:46:09.654Z,45.10
2022-08-03T22:48:34.919Z,50.20
2022-08-03T22:51:03.504Z,49.30
2022-08-03T22:53:31.740Z,52.60
2022-08-03T22:56:01.363Z,45.53
2022-08-03T22:58:29.652Z,48.67
2022-08-03T23:00:59.277Z,46.30
2022-08-03T23:04:00.083Z,48.07
2022-08-03T23:06:20.034Z,45.53
2022-08-03T23:08:48.949Z,49.20
2022-08-03T23:11:19.392Z,47.63
2022-08-03T23:13:48.486Z,46.70
2022-08-03T23:16:29.085Z,50.17
2022-08-03T23:18:59.713Z,47.83
2022-08-03T23:22:00.046Z,48.77
2022-08-03T23:24:29.057Z,46.47
2022-08-03T23:26:59.953Z,52.47
2022-08-03T23:29:30.323Z,51.63
2022-08-03T23:31:59.304Z,46.83
2022-08-03T23:34:45.552Z,47.00
2022-08-03T23:37:15.037Z,47.47
2022-08-03T23:39:46.345Z,48.50
2022-08-03T23:42:17.988Z,48.10
2022-08-03T23:44:46.460Z,53.77
2022-08-03T23:47:14.891Z,49.53
2022-08-03T23:49:43.125Z,48.37
2022-08-03T23:52:12.106Z,46.43
2022-08-03T23:54:51.086Z,49.73
2022-08-03T23:57:30.286Z,46.93
